createdAt,value
2023-05-14T00:01:36.911Z,11.52
2023-05-14T00:04:05.052Z,11.31
2023-05-14T00:06:33.018Z,11.13
2023-05-14T00:09:01.155Z,11.16
2023-05-14T00:11:29.031Z,11.26
2023-05-14T00:13:57.263Z,11.32
2023-05-14T00:16:25.361Z,11.35
2023-05-14T00:18:53.704Z,11.36
2023-05-14T00:21:21.807Z,11.45
2023-05-14T00:23:50.054Z,11.54
2023-05-14T00:26:17.990Z,11.45
2023-05-14T00:28:46.513Z,11.38
2023-05-14T00:31:14.797Z,11.36
2023-05-14T00:33:42.868Z,11.35
2023-05-14T00:36:11.022Z,11.37
2023-05-14T00:38:39.194Z,11.38
2023-05-14T00:41:09.286Z,11.37
2023-05-14T00:43:37.245Z,11.39
2023-05-14T00:46:06.073Z,11.33
2023-05-14T00:48:34.457Z,11.29
2023-05-14T00:51:02.582Z,11.32
2023-05-14T00:53:30.712Z,11.34
2023-05-14T00:55:59.206Z,11.23
2023-05-14T00:58:27.749Z,11.05
2023-05-14T01:00:56.383Z,10.98
2023-05-14T01:03:24.481Z,11.06
2023-05-14T01:06:11.350Z,11.07
2023-05-14T01:08:45.325Z,10.93
2023-05-14T01:11:42.600Z,10.89
2023-05-14T01:14:10.559Z,10.87
2023-05-14T01:16:40.479Z,10.85
2023-05-14T01:19:17.540Z,10.82
2023-05-14T01:21:45.718Z,10.82
2023-05-14T01:24:13.891Z,10.80
2023-05-14T01:26:42.035Z,10.71
2023-05-14T01:29:22.163Z,10.60
2023-05-14T01:31:51.470Z,10.69
2023-05-14T01:34:21.271Z,10.61
2023-05-14T01:36:50.829Z,10.58
2023-05-14T01:39:19.372Z,10.67
2023-05-14T01:41:48.918Z,10.80
2023-05-14T01:44:17.611Z,10.88
2023-05-14T01:46:45.769Z,10.53
2023-05-14T01:49:14.037Z,10.23
2023-05-14T01:51:42.227Z,9.98
2023-05-14T01:54:10.381Z,10.09
2023-05-14T01:56:38.357Z,10.24
2023-05-14T01:59:06.537Z,10.24
2023-05-14T02:01:34.786Z,10.15
2023-05-14T02:04:02.871Z,10.09
2023-05-14T02:06:32.407Z,10.02
2023-05-14T02:09:00.334Z,9.89
2023-05-14T02:11:28.412Z,9.99
2023-05-14T02:13:56.398Z,9.97
2023-05-14T02:16:24.985Z,9.97
2023-05-14T02:18:53.066Z,10.20
2023-05-14T02:21:21.097Z,10.33
2023-05-14T02:23:50.412Z,10.28
2023-05-14T02:26:18.374Z,10.21
2023-05-14T02:28:46.449Z,10.22
2023-05-14T02:31:14.793Z,10.26
2023-05-14T02:33:43.212Z,10.24
2023-05-14T02:36:11.709Z,10.22
2023-05-14T02:38:39.830Z,10.13
2023-05-14T02:41:08.016Z,10.08
2023-05-14T02:43:36.001Z,10.12
2023-05-14T02:46:04.301Z,10.11
2023-05-14T02:48:32.448Z,10.21
2023-05-14T02:51:00.748Z,10.35
2023-05-14T02:53:28.798Z,10.44
2023-05-14T02:55:56.694Z,10.45
2023-05-14T02:58:26.866Z,10.37
2023-05-14T03:00:56.640Z,10.34
2023-05-14T03:03:25.611Z,10.45
2023-05-14T03:05:54.197Z,10.61
2023-05-14T03:08:22.132Z,10.66
2023-05-14T03:10:50.166Z,10.81
2023-05-14T03:13:20.220Z,10.96
2023-05-14T03:15:48.845Z,11.05
2023-05-14T03:18:17.076Z,11.56
2023-05-14T03:20:47.288Z,12.34
2023-05-14T03:23:15.550Z,13.14
2023-05-14T03:25:43.502Z,13.82
2023-05-14T03:28:11.568Z,14.25
2023-05-14T03:30:39.721Z,14.76
2023-05-14T03:33:07.910Z,15.17
2023-05-14T03:35:36.024Z,15.20
2023-05-14T03:38:03.995Z,15.34
2023-05-14T03:40:32.272Z,15.56
2023-05-14T03:43:00.191Z,15.79
2023-05-14T03:45:30.435Z,16.11
2023-05-14T03:47:59.857Z,16.20
2023-05-14T03:50:28.235Z,15.61
2023-05-14T03:52:56.517Z,15.14
2023-05-14T03:55:24.659Z,15.24
2023-05-14T03:57:52.863Z,15.13
2023-05-14T04:00:21.624Z,14.72
2023-05-14T04:02:49.977Z,14.80
2023-05-14T04:05:18.714Z,15.14
2023-05-14T04:07:46.961Z,15.11
2023-05-14T04:10:14.880Z,15.26
2023-05-14T04:12:43.050Z,15.43
2023-05-14T04:15:11.531Z,15.84
2023-05-14T04:17:39.583Z,16.39
2023-05-14T04:20:08.134Z,16.97
2023-05-14T04:22:36.439Z,17.34
2023-05-14T04:25:04.697Z,18.81
2023-05-14T04:27:33.182Z,20.06
2023-05-14T04:30:01.465Z,20.88
2023-05-14T04:32:30.416Z,21.52
2023-05-14T04:34:58.626Z,22.17
2023-05-14T04:37:26.975Z,22.62
2023-05-14T04:39:54.992Z,23.10
2023-05-14T04:42:23.220Z,23.41
2023-05-14T04:44:51.232Z,23.44
2023-05-14T04:47:19.802Z,23.52
2023-05-14T04:49:47.996Z,23.61
2023-05-14T04:52:16.038Z,24.09
2023-05-14T04:54:44.048Z,24.29
2023-05-14T04:57:12.051Z,24.07
2023-05-14T04:59:40.151Z,23.95
2023-05-14T05:02:08.532Z,24.15
2023-05-14T05:04:36.809Z,24.58
2023-05-14T05:07:05.900Z,24.70
2023-05-14T05:09:33.815Z,24.60
2023-05-14T05:12:02.055Z,24.61
2023-05-14T05:14:30.121Z,24.45
2023-05-14T05:16:58.288Z,24.25
2023-05-14T05:19:35.811Z,23.92
2023-05-14T05:22:08.155Z,23.40
2023-05-14T05:24:36.122Z,23.23
2023-05-14T05:27:05.619Z,22.87
2023-05-14T05:29:35.324Z,22.05
2023-05-14T05:32:04.077Z,21.91
2023-05-14T05:34:32.218Z,21.80
2023-05-14T05:37:00.161Z,21.77
2023-05-14T05:39:28.262Z,21.82
2023-05-14T05:41:56.415Z,21.50
2023-05-14T05:44:25.147Z,21.29
2023-05-14T05:46:53.180Z,21.11
2023-05-14T05:49:21.249Z,20.79
2023-05-14T05:51:49.153Z,20.75
2023-05-14T05:54:17.103Z,20.97
2023-05-14T05:56:45.152Z,21.18
2023-05-14T05:59:13.312Z,21.45
2023-05-14T06:01:43.586Z,21.71
2023-05-14T06:04:11.605Z,21.98
2023-05-14T06:06:39.777Z,22.34
2023-05-14T06:09:09.094Z,22.41
2023-05-14T06:11:37.109Z,22.50
2023-05-14T06:14:04.976Z,22.66
2023-05-14T06:16:33.456Z,22.69
2023-05-14T06:19:02.240Z,22.52
2023-05-14T06:21:30.582Z,22.33
2023-05-14T06:23:58.599Z,22.38
2023-05-14T06:26:26.596Z,22.23
2023-05-14T06:28:54.656Z,22.14
2023-05-14T06:31:22.729Z,22.05
2023-05-14T06:33:50.817Z,22.00
2023-05-14T06:36:18.955Z,22.26
2023-05-14T06:38:46.948Z,22.72
2023-05-14T06:41:14.920Z,23.35
2023-05-14T06:43:43.063Z,23.94
2023-05-14T06:46:11.030Z,24.41
2023-05-14T06:48:39.082Z,24.20
2023-05-14T06:51:07.200Z,24.10
2023-05-14T06:53:35.091Z,23.08
2023-05-14T06:56:03.291Z,22.43
2023-05-14T06:58:31.415Z,22.31
2023-05-14T07:01:00.333Z,22.14
2023-05-14T07:03:29.406Z,21.85
2023-05-14T07:05:57.294Z,21.88
2023-05-14T07:08:25.558Z,21.94
2023-05-14T07:10:53.621Z,22.04
2023-05-14T07:13:21.896Z,22.00
2023-05-14T07:15:49.996Z,22.20
2023-05-14T07:18:18.078Z,21.05
2023-05-14T07:20:46.005Z,21.17
2023-05-14T07:23:14.139Z,21.50
2023-05-14T07:25:42.142Z,21.29
2023-05-14T07:28:10.132Z,19.97
2023-05-14T07:30:37.985Z,19.95
2023-05-14T07:33:06.061Z,20.58
2023-05-14T07:35:34.636Z,20.42
2023-05-14T07:38:03.328Z,20.17
2023-05-14T07:40:31.643Z,20.36
2023-05-14T07:42:59.716Z,19.94
2023-05-14T07:45:27.885Z,19.49
2023-05-14T07:47:56.237Z,18.78
2023-05-14T07:50:24.568Z,18.73
2023-05-14T07:52:53.045Z,19.36
2023-05-14T07:55:21.263Z,19.88
2023-05-14T07:57:49.322Z,19.75
2023-05-14T08:00:17.508Z,18.88
2023-05-14T08:02:45.576Z,19.35
2023-05-14T08:05:13.917Z,19.11
2023-05-14T08:07:41.998Z,18.98
2023-05-14T08:10:10.238Z,19.45
2023-05-14T08:12:39.143Z,19.29
2023-05-14T08:15:07.987Z,19.48
2023-05-14T08:17:36.181Z,19.58
2023-05-14T08:20:06.709Z,19.82
2023-05-14T08:22:34.644Z,20.10
2023-05-14T08:25:03.962Z,20.68
2023-05-14T08:27:32.522Z,20.88
2023-05-14T08:30:00.535Z,21.05
2023-05-14T08:32:28.777Z,21.24
2023-05-14T08:34:57.013Z,21.68
2023-05-14T08:37:25.384Z,22.42
2023-05-14T08:39:53.398Z,22.57
2023-05-14T08:42:22.218Z,22.28
2023-05-14T08:44:57.193Z,22.09
2023-05-14T08:47:25.423Z,22.27
2023-05-14T08:49:58.786Z,22.53
2023-05-14T08:52:26.994Z,22.81
2023-05-14T08:54:56.152Z,22.36
2023-05-14T08:57:26.842Z,22.33
2023-05-14T08:59:54.891Z,22.44
2023-05-14T09:02:25.085Z,22.42
2023-05-14T09:04:56.148Z,22.04
2023-05-14T09:07:24.767Z,21.58
2023-05-14T09:09:53.252Z,21.37
2023-05-14T09:12:21.967Z,21.44
2023-05-14T09:14:50.632Z,21.25
2023-05-14T09:17:19.074Z,20.67
2023-05-14T09:19:49.334Z,20.77
2023-05-14T09:22:17.962Z,20.82
2023-05-14T09:24:46.519Z,20.74
2023-05-14T09:27:21.462Z,20.15
2023-05-14T09:29:49.405Z,20.27
2023-05-14T09:32:18.005Z,20.81
2023-05-14T09:34:45.975Z,21.16
2023-05-14T09:37:14.149Z,21.73
2023-05-14T09:39:42.066Z,22.24
2023-05-14T09:42:10.194Z,22.95
2023-05-14T09:44:38.976Z,22.88
2023-05-14T09:47:06.956Z,22.07
2023-05-14T09:49:35.410Z,21.89
2023-05-14T09:52:03.900Z,21.60
2023-05-14T09:54:32.181Z,20.94
2023-05-14T09:57:00.251Z,21.61
2023-05-14T09:59:28.219Z,22.23
2023-05-14T10:01:57.721Z,22.25
2023-05-14T10:04:26.079Z,22.13
2023-05-14T10:06:55.197Z,21.90
2023-05-14T10:09:27.476Z,21.53
2023-05-14T10:11:59.291Z,21.66
2023-05-14T10:14:29.820Z,21.49
2023-05-14T10:16:59.488Z,20.73
2023-05-14T10:19:28.361Z,20.62
2023-05-14T10:21:57.653Z,20.54
2023-05-14T10:24:26.335Z,20.60
2023-05-14T10:26:54.454Z,19.29
2023-05-14T10:29:31.833Z,19.27
2023-05-14T10:32:03.724Z,19.64
2023-05-14T10:34:33.578Z,18.98
2023-05-14T10:37:02.259Z,19.07
2023-05-14T10:39:45.714Z,18.93
2023-05-14T10:42:21.450Z,19.12
2023-05-14T10:44:49.527Z,19.27
2023-05-14T10:47:18.337Z,19.58
2023-05-14T10:49:50.595Z,19.56
2023-05-14T10:52:19.582Z,19.38
2023-05-14T10:54:57.002Z,19.77
2023-05-14T10:57:29.219Z,20.43
2023-05-14T10:59:58.486Z,20.30
2023-05-14T11:02:26.725Z,20.60
2023-05-14T11:04:54.663Z,20.78
2023-05-14T11:07:24.412Z,20.73
2023-05-14T11:09:52.781Z,20.61
2023-05-14T11:12:21.382Z,20.48
2023-05-14T11:14:50.781Z,20.19
2023-05-14T11:17:19.307Z,20.25
2023-05-14T11:19:48.861Z,20.41
2023-05-14T11:22:18.563Z,20.65
2023-05-14T11:24:46.710Z,20.74
2023-05-14T11:27:14.907Z,20.74
2023-05-14T11:29:46.388Z,20.82
2023-05-14T11:32:15.125Z,20.78
2023-05-14T11:34:44.972Z,20.37
2023-05-14T11:37:14.235Z,20.14
2023-05-14T11:39:49.074Z,19.89
2023-05-14T11:42:18.812Z,19.45
2023-05-14T11:44:47.966Z,19.30
2023-05-14T11:47:17.273Z,19.16
2023-05-14T11:49:45.976Z,19.07
2023-05-14T11:52:15.069Z,18.82
2023-05-14T11:54:44.350Z,18.80
2023-05-14T11:57:13.301Z,18.78
2023-05-14T11:59:41.407Z,18.67
2023-05-14T12:02:14.026Z,18.62
2023-05-14T12:04:42.915Z,18.51
2023-05-14T12:07:12.030Z,18.47
2023-05-14T12:09:49.273Z,18.55
2023-05-14T12:12:21.387Z,18.44
2023-05-14T12:14:50.029Z,18.38
2023-05-14T12:17:19.004Z,18.21
2023-05-14T12:19:51.167Z,18.24
2023-05-14T12:22:22.913Z,18.18
2023-05-14T12:24:54.849Z,18.22
2023-05-14T12:27:24.767Z,18.20
2023-05-14T12:30:19.884Z,18.08
2023-05-14T12:32:52.913Z,18.22
2023-05-14T12:35:21.641Z,18.29
2023-05-14T12:37:49.664Z,18.45
2023-05-14T12:40:18.026Z,18.56
2023-05-14T12:42:46.121Z,18.60
2023-05-14T12:45:14.168Z,18.63
2023-05-14T12:47:42.401Z,18.73
2023-05-14T12:50:10.823Z,18.62
2023-05-14T12:52:40.873Z,18.53
2023-05-14T12:55:09.730Z,18.45
2023-05-14T12:57:39.334Z,18.32
2023-05-14T13:00:09.890Z,18.21
2023-05-14T13:02:42.741Z,18.12
2023-05-14T13:05:12.174Z,18.06
2023-05-14T13:07:40.234Z,18.06
2023-05-14T13:10:08.612Z,18.08
2023-05-14T13:12:36.530Z,18.03
2023-05-14T13:15:04.946Z,17.84
2023-05-14T13:17:32.945Z,17.79
2023-05-14T13:20:01.107Z,17.65
2023-05-14T13:22:29.714Z,17.53
2023-05-14T13:24:57.712Z,17.25
2023-05-14T13:27:26.228Z,17.17
2023-05-14T13:29:54.188Z,17.04
2023-05-14T13:32:22.113Z,16.87
2023-05-14T13:34:50.640Z,16.65
2023-05-14T13:37:18.712Z,16.38
2023-05-14T13:39:46.678Z,16.19
2023-05-14T13:42:14.577Z,16.00
2023-05-14T13:44:42.465Z,15.91
2023-05-14T13:47:10.791Z,15.92
2023-05-14T13:49:40.396Z,16.06
2023-05-14T13:52:08.325Z,16.19
2023-05-14T13:54:36.343Z,16.35
2023-05-14T13:57:04.630Z,16.55
2023-05-14T13:59:32.578Z,16.79
2023-05-14T14:02:00.912Z,17.02
2023-05-14T14:04:29.248Z,17.19
2023-05-14T14:06:57.568Z,17.40
2023-05-14T14:09:25.958Z,17.56
2023-05-14T14:11:54.039Z,17.69
2023-05-14T14:14:22.095Z,17.78
2023-05-14T14:16:50.099Z,17.92
2023-05-14T14:19:18.681Z,18.13
2023-05-14T14:21:46.959Z,18.43
2023-05-14T14:24:14.857Z,18.69
2023-05-14T14:26:42.803Z,18.90
2023-05-14T14:29:10.723Z,19.07
2023-05-14T14:31:38.657Z,19.04
2023-05-14T14:34:06.728Z,19.07
2023-05-14T14:36:34.767Z,19.02
2023-05-14T14:39:02.673Z,18.86
2023-05-14T14:41:30.940Z,18.52
2023-05-14T14:43:59.187Z,18.37
2023-05-14T14:46:27.189Z,18.36
2023-05-14T14:48:55.327Z,18.04
2023-05-14T14:51:23.450Z,18.04
2023-05-14T14:53:51.583Z,18.11
2023-05-14T14:56:19.490Z,17.78
2023-05-14T14:58:47.510Z,17.73
2023-05-14T15:01:15.915Z,17.80
2023-05-14T15:03:45.812Z,17.86
2023-05-14T15:06:13.987Z,17.97
2023-05-14T15:08:42.169Z,18.10
2023-05-14T15:11:10.429Z,17.98
2023-05-14T15:13:40.257Z,18.13
2023-05-14T15:16:08.550Z,18.30
2023-05-14T15:18:36.999Z,18.38
2023-05-14T15:21:05.316Z,18.42
2023-05-14T15:23:33.286Z,18.36
2023-05-14T15:26:01.823Z,18.28
2023-05-14T15:28:29.791Z,18.23
2023-05-14T15:30:58.072Z,18.20
2023-05-14T15:33:26.180Z,18.15
2023-05-14T15:35:54.625Z,18.09
2023-05-14T15:38:22.904Z,18.01
2023-05-14T15:40:51.186Z,17.90
2023-05-14T15:43:19.093Z,17.87
2023-05-14T15:45:47.237Z,17.87
2023-05-14T15:48:15.198Z,17.93
2023-05-14T15:50:43.679Z,18.00
2023-05-14T15:53:11.856Z,18.06
2023-05-14T15:55:39.951Z,18.09
2023-05-14T15:58:08.073Z,18.08
2023-05-14T16:00:36.554Z,18.11
2023-05-14T16:03:04.793Z,18.11
2023-05-14T16:05:33.103Z,18.08
2023-05-14T16:08:01.241Z,18.03
2023-05-14T16:10:29.866Z,17.95
2023-05-14T16:12:57.779Z,17.91
2023-05-14T16:15:25.805Z,17.92
2023-05-14T16:17:53.852Z,17.92
2023-05-14T16:20:22.016Z,17.92
2023-05-14T16:22:50.149Z,17.94
2023-05-14T16:25:18.815Z,17.96
2023-05-14T16:27:47.071Z,17.93
2023-05-14T16:30:15.194Z,17.85
2023-05-14T16:32:43.462Z,17.79
2023-05-14T16:35:11.541Z,17.75
2023-05-14T16:37:39.484Z,17.76
2023-05-14T16:40:09.498Z,17.75
2023-05-14T16:42:37.777Z,17.74
2023-05-14T16:45:05.908Z,17.77
2023-05-14T16:47:34.020Z,17.81
2023-05-14T16:50:02.069Z,17.86
2023-05-14T16:52:30.989Z,17.87
2023-05-14T16:54:59.111Z,17.82
2023-05-14T16:57:27.243Z,17.74
2023-05-14T16:59:55.149Z,17.70
2023-05-14T17:02:23.182Z,17.66
2023-05-14T17:04:51.369Z,17.54
2023-05-14T17:07:19.474Z,17.36
2023-05-14T17:09:47.460Z,17.18
2023-05-14T17:12:15.481Z,17.02
2023-05-14T17:14:43.583Z,16.91
2023-05-14T17:17:11.550Z,16.84
2023-05-14T17:19:39.656Z,16.76
2023-05-14T17:22:07.696Z,16.69
2023-05-14T17:24:36.617Z,16.66
2023-05-14T17:27:06.152Z,16.70
2023-05-14T17:29:34.356Z,16.76
2023-05-14T17:32:03.650Z,16.82
2023-05-14T17:34:31.719Z,16.86
2023-05-14T17:37:00.981Z,16.90
2023-05-14T17:39:29.307Z,16.93
2023-05-14T17:41:57.235Z,16.93
2023-05-14T17:44:25.651Z,16.92
2023-05-14T17:46:53.968Z,16.91
2023-05-14T17:49:22.059Z,16.91
2023-05-14T17:51:50.198Z,16.90
2023-05-14T17:54:18.336Z,16.85
2023-05-14T17:56:48.278Z,16.82
2023-05-14T17:59:16.859Z,16.81
2023-05-14T18:01:44.751Z,16.83
2023-05-14T18:04:12.810Z,16.82
2023-05-14T18:06:40.874Z,16.84
2023-05-14T18:09:09.021Z,16.83
2023-05-14T18:11:37.115Z,16.83
2023-05-14T18:14:05.085Z,16.85
2023-05-14T18:16:33.070Z,16.85
2023-05-14T18:19:01.355Z,16.86
2023-05-14T18:21:29.491Z,16.85
2023-05-14T18:23:57.624Z,16.85
2023-05-14T18:26:26.777Z,16.83
2023-05-14T18:28:54.946Z,16.78
2023-05-14T18:31:23.126Z,16.72
2023-05-14T18:33:51.731Z,16.70
2023-05-14T18:36:20.033Z,16.68
2023-05-14T18:38:47.972Z,16.67
2023-05-14T18:41:16.221Z,16.64
2023-05-14T18:43:44.806Z,16.61
2023-05-14T18:46:12.865Z,16.58
2023-05-14T18:48:41.556Z,16.56
2023-05-14T18:51:11.315Z,16.53
2023-05-14T18:53:39.414Z,16.54
2023-05-14T18:56:08.434Z,16.54
2023-05-14T18:58:36.425Z,16.48
2023-05-14T19:01:04.390Z,16.32
2023-05-14T19:03:32.733Z,16.19
2023-05-14T19:06:00.829Z,16.08
2023-05-14T19:08:28.955Z,16.04
2023-05-14T19:10:56.849Z,16.01
2023-05-14T19:13:25.153Z,15.95
2023-05-14T19:15:53.422Z,15.86
2023-05-14T19:18:21.550Z,15.76
2023-05-14T19:20:49.503Z,15.73
2023-05-14T19:23:17.602Z,15.78
2023-05-14T19:25:45.781Z,15.90
2023-05-14T19:28:14.171Z,16.02
2023-05-14T19:30:42.184Z,16.05
2023-05-14T19:33:10.371Z,16.10
2023-05-14T19:35:38.381Z,16.19
2023-05-14T19:38:06.371Z,16.26
2023-05-14T19:40:34.234Z,16.29
2023-05-14T19:43:02.399Z,16.27
2023-05-14T19:45:30.637Z,16.30
2023-05-14T19:47:58.601Z,16.31
2023-05-14T19:50:26.657Z,16.30
2023-05-14T19:52:54.798Z,16.33
2023-05-14T19:55:22.970Z,16.37
2023-05-14T19:57:51.155Z,16.35
2023-05-14T20:00:19.294Z,16.36
2023-05-14T20:02:47.956Z,16.38
2023-05-14T20:05:16.716Z,16.37
2023-05-14T20:07:45.046Z,16.40
2023-05-14T20:10:14.200Z,16.30
2023-05-14T20:12:42.152Z,16.17
2023-05-14T20:15:10.386Z,16.04
2023-05-14T20:17:38.802Z,15.95
2023-05-14T20:20:08.258Z,15.93
2023-05-14T20:22:36.239Z,15.95
2023-05-14T20:25:04.410Z,16.00
2023-05-14T20:27:32.829Z,16.01
2023-05-14T20:30:01.064Z,16.02
2023-05-14T20:32:29.123Z,16.08
2023-05-14T20:35:02.189Z,16.09
2023-05-14T20:37:30.707Z,16.08
2023-05-14T20:39:59.838Z,16.12
2023-05-14T20:42:28.585Z,16.11
2023-05-14T20:44:57.629Z,16.08
2023-05-14T20:47:26.827Z,16.05
2023-05-14T20:49:54.947Z,16.05
2023-05-14T20:52:22.831Z,16.00
2023-05-14T20:54:50.895Z,16.01
2023-05-14T20:57:19.261Z,16.05
2023-05-14T20:59:47.653Z,16.10
2023-05-14T21:02:15.942Z,16.13
2023-05-14T21:04:44.364Z,16.17
2023-05-14T21:07:12.469Z,16.16
2023-05-14T21:09:40.521Z,16.15
2023-05-14T21:12:08.769Z,16.16
2023-05-14T21:14:37.017Z,16.10
2023-05-14T21:17:05.215Z,16.12
2023-05-14T21:19:33.207Z,16.10
2023-05-14T21:22:01.134Z,16.08
2023-05-14T21:24:29.114Z,16.09
2023-05-14T21:26:57.100Z,16.08
2023-05-14T21:29:25.196Z,16.08
2023-05-14T21:31:53.575Z,16.09
2023-05-14T21:34:21.658Z,16.05
2023-05-14T21:36:50.141Z,16.03
2023-05-14T21:39:18.055Z,16.04
2023-05-14T21:41:46.176Z,16.04
2023-05-14T21:44:14.456Z,16.05
2023-05-14T21:46:42.416Z,16.08
2023-05-14T21:49:10.494Z,16.09
2023-05-14T21:51:38.600Z,16.13
2023-05-14T21:54:07.070Z,16.15
2023-05-14T21:56:35.406Z,16.16
2023-05-14T21:59:03.447Z,16.12
2023-05-14T22:01:32.593Z,16.14
2023-05-14T22:04:01.938Z,16.18
2023-05-14T22:06:29.958Z,16.22
2023-05-14T22:08:57.931Z,16.23
2023-05-14T22:11:25.860Z,16.25
2023-05-14T22:13:53.968Z,16.30
2023-05-14T22:16:22.541Z,16.35
2023-05-14T22:18:50.573Z,16.35
2023-05-14T22:21:18.594Z,16.35
2023-05-14T22:23:46.664Z,16.36
2023-05-14T22:26:14.725Z,16.37
2023-05-14T22:28:43.755Z,16.33
2023-05-14T22:31:11.685Z,16.30
2023-05-14T22:33:39.660Z,16.25
2023-05-14T22:36:08.437Z,16.21
2023-05-14T22:38:36.391Z,16.20
2023-05-14T22:41:04.487Z,16.15
2023-05-14T22:43:32.519Z,16.13
2023-05-14T22:46:00.685Z,16.08
2023-05-14T22:48:28.620Z,16.07
2023-05-14T22:50:56.508Z,16.08
2023-05-14T22:53:25.289Z,16.01
2023-05-14T22:55:53.521Z,15.97
2023-05-14T22:58:21.824Z,15.94
2023-05-14T23:00:49.958Z,15.91
2023-05-14T23:03:17.923Z,15.89
2023-05-14T23:05:46.202Z,15.89
2023-05-14T23:08:14.184Z,15.90
2023-05-14T23:10:42.166Z,15.88
2023-05-14T23:13:10.331Z,15.84
2023-05-14T23:15:39.014Z,15.83
2023-05-14T23:18:08.012Z,15.79
2023-05-14T23:20:36.178Z,15.75
2023-05-14T23:23:04.307Z,15.73
2023-05-14T23:25:32.575Z,15.69
2023-05-14T23:28:00.597Z,15.56
2023-05-14T23:30:28.659Z,15.48
2023-05-14T23:32:56.963Z,15.40
2023-05-14T23:35:25.253Z,15.29
2023-05-14T23:37:55.367Z,15.18
2023-05-14T23:40:23.619Z,15.15
2023-05-14T23:42:51.538Z,15.14
2023-05-14T23:45:19.488Z,15.14
2023-05-14T23:47:47.433Z,15.08
2023-05-14T23:50:15.506Z,15.07
2023-05-14T23:52:43.783Z,15.12
2023-05-14T23:55:11.904Z,15.11
2023-05-14T23:57:40.054Z,15.10
